N3514T KFDK-KDCA
Flight info
| Callsign | N3514T |
|---|---|
| Flight time | N/A |
| Altitude | 6000 |
| Route | KFDK RAYEE V8 DCA KDCA |
| Aircraft | C172/L-V/N |
Departure
| Time | 2026-04-30 22:42 |
|---|---|
| Airport | Frederick Municipal Airport (KFDK) |
Arrival
| Time | N/A |
|---|---|
| Airport | Ronald Reagan Washington National Airport (KDCA) |
| Time | Latitude | Longitude | Altitude | Speed | Heading |
|---|---|---|---|---|---|
| 2026-04-30 22:21 | 39.41443 | -77.37946 | 303 ft | 0 kts | 274° |
| 2026-04-30 22:33 | 39.41442 | -77.37917 | 303 ft | 0 kts | 274° |
| 2026-04-30 22:36 | 39.41451 | -77.37929 | 304 ft | 4 kts | 358° |
| 2026-04-30 22:36 | 39.41460 | -77.37882 | 302 ft | 11 kts | 90° |
| 2026-04-30 22:37 | 39.41252 | -77.37880 | 306 ft | 14 kts | 221° |
| 2026-04-30 22:37 | 39.41188 | -77.37950 | 308 ft | 12 kts | 220° |
| 2026-04-30 22:37 | 39.41069 | -77.38082 | 308 ft | 7 kts | 220° |
| 2026-04-30 22:38 | 39.41042 | -77.38112 | 308 ft | 1 kts | 218° |
| 2026-04-30 22:38 | 39.41013 | -77.38112 | 309 ft | 0 kts | 134° |
| 2026-04-30 22:39 | 39.41018 | -77.38125 | 309 ft | 5 kts | 269° |
| 2026-04-30 22:40 | 39.40907 | -77.38188 | 310 ft | 11 kts | 128° |
| 2026-04-30 22:41 | 39.41346 | -77.37614 | 304 ft | 89 kts | 40° |
| 2026-04-30 22:41 | 39.42438 | -77.36444 | 719 ft | 94 kts | 33° |
| 2026-04-30 22:42 | 39.44677 | -77.34894 | 1610 ft | 94 kts | 322° |
| 2026-04-30 22:43 | 39.44920 | -77.36320 | 2062 ft | 86 kts | 233° |
| 2026-04-30 22:43 | 39.43855 | -77.36588 | 2508 ft | 83 kts | 177° |
| 2026-04-30 22:44 | 39.42679 | -77.36427 | 2971 ft | 89 kts | 181° |
| 2026-04-30 22:45 | 39.39606 | -77.36146 | 3040 ft | 119 kts | 181° |
| 2026-04-30 22:45 | 39.37954 | -77.35992 | 3038 ft | 119 kts | 181° |
| 2026-04-30 22:46 | 39.36305 | -77.35824 | 3030 ft | 117 kts | 181° |
| 2026-04-30 22:47 | 39.33228 | -77.36023 | 3023 ft | 109 kts | 189° |
| 2026-04-30 22:47 | 39.31748 | -77.36299 | 3011 ft | 107 kts | 199° |
| 2026-04-30 22:48 | 39.30305 | -77.36788 | 3008 ft | 109 kts | 186° |
| 2026-04-30 22:49 | 39.28044 | -77.36282 | 3008 ft | 109 kts | 176° |
| 2026-04-30 22:49 | 39.25907 | -77.36453 | 3015 ft | 103 kts | 200° |
| 2026-04-30 22:50 | 39.23026 | -77.37059 | 3015 ft | 108 kts | 183° |
| 2026-04-30 22:51 | 39.21552 | -77.37066 | 3011 ft | 105 kts | 187° |
| 2026-04-30 22:51 | 39.20112 | -77.37129 | 3013 ft | 103 kts | 187° |
| 2026-04-30 22:52 | 39.19391 | -77.37156 | 3012 ft | 104 kts | 187° |
| 2026-04-30 22:52 | 39.17926 | -77.36962 | 3011 ft | 106 kts | 180° |
| 2026-04-30 22:53 | 39.16474 | -77.36716 | 3014 ft | 106 kts | 179° |
| 2026-04-30 22:53 | 39.14996 | -77.36483 | 3019 ft | 109 kts | 179° |
| 2026-04-30 22:53 | 39.14235 | -77.36384 | 3021 ft | 111 kts | 180° |
| 2026-04-30 22:54 | 39.12628 | -77.36141 | 3015 ft | 118 kts | 179° |
| 2026-04-30 22:55 | 39.10586 | -77.35784 | 3034 ft | 106 kts | 179° |
| 2026-04-30 22:55 | 39.09133 | -77.35509 | 3030 ft | 104 kts | 179° |
| 2026-04-30 22:56 | 39.07502 | -77.35204 | 2996 ft | 101 kts | 179° |
| 2026-04-30 22:56 | 39.05973 | -77.33777 | 3009 ft | 110 kts | 150° |
| 2026-04-30 22:57 | 39.04890 | -77.32312 | 3008 ft | 116 kts | 139° |
| 2026-04-30 22:57 | 39.03920 | -77.30644 | 3038 ft | 116 kts | 139° |
| 2026-04-30 22:58 | 39.02961 | -77.28974 | 3041 ft | 116 kts | 138° |
| 2026-04-30 22:59 | 39.01527 | -77.26495 | 3036 ft | 115 kts | 138° |
| 2026-04-30 22:59 | 39.00088 | -77.24020 | 3019 ft | 115 kts | 138° |